sensor_id;sensor_type;location;lat;lon;timestamp;P1;durP1;ratioP1;P2;durP2;ratioP2
3959;SDS011;1994;48.640;8.894;2023-06-26T00:01:23;6.63;;;4.97;;
3959;SDS011;1994;48.640;8.894;2023-06-26T00:03:49;5.07;;;4.57;;
3959;SDS011;1994;48.640;8.894;2023-06-26T00:06:15;5.13;;;4.73;;
3959;SDS011;1994;48.640;8.894;2023-06-26T00:08:41;4.47;;;4.07;;
3959;SDS011;1994;48.640;8.894;2023-06-26T00:11:08;5.50;;;4.77;;
3959;SDS011;1994;48.640;8.894;2023-06-26T00:13:34;4.80;;;4.40;;
3959;SDS011;1994;48.640;8.894;2023-06-26T00:15:59;5.57;;;5.00;;
3959;SDS011;1994;48.640;8.894;2023-06-26T00:18:28;5.23;;;4.73;;
3959;SDS011;1994;48.640;8.894;2023-06-26T00:20:54;4.70;;;4.30;;
3959;SDS011;1994;48.640;8.894;2023-06-26T00:23:20;6.23;;;5.07;;
3959;SDS011;1994;48.640;8.894;2023-06-26T00:25:46;5.90;;;5.37;;
3959;SDS011;1994;48.640;8.894;2023-06-26T00:28:11;4.93;;;4.50;;
3959;SDS011;1994;48.640;8.894;2023-06-26T00:30:37;5.03;;;4.63;;
3959;SDS011;1994;48.640;8.894;2023-06-26T00:33:03;5.03;;;4.53;;
3959;SDS011;1994;48.640;8.894;2023-06-26T00:35:29;6.03;;;4.63;;
3959;SDS011;1994;48.640;8.894;2023-06-26T00:37:55;5.23;;;4.73;;
3959;SDS011;1994;48.640;8.894;2023-06-26T00:40:20;6.30;;;4.63;;
3959;SDS011;1994;48.640;8.894;2023-06-26T00:42:46;6.33;;;5.73;;
3959;SDS011;1994;48.640;8.894;2023-06-26T00:45:12;6.77;;;5.43;;
3959;SDS011;1994;48.640;8.894;2023-06-26T00:47:38;9.20;;;4.97;;
3959;SDS011;1994;48.640;8.894;2023-06-26T00:50:04;5.30;;;4.80;;
3959;SDS011;1994;48.640;8.894;2023-06-26T00:52:31;5.53;;;5.10;;
3959;SDS011;1994;48.640;8.894;2023-06-26T00:54:57;5.90;;;4.87;;
3959;SDS011;1994;48.640;8.894;2023-06-26T00:57:23;4.57;;;4.17;;
3959;SDS011;1994;48.640;8.894;2023-06-26T00:59:49;7.60;;;4.90;;
3959;SDS011;1994;48.640;8.894;2023-06-26T01:02:15;6.17;;;5.20;;
3959;SDS011;1994;48.640;8.894;2023-06-26T01:04:44;5.63;;;5.03;;
3959;SDS011;1994;48.640;8.894;2023-06-26T01:07:13;7.53;;;5.60;;
3959;SDS011;1994;48.640;8.894;2023-06-26T01:09:43;5.77;;;5.10;;
3959;SDS011;1994;48.640;8.894;2023-06-26T01:12:14;5.80;;;5.20;;
3959;SDS011;1994;48.640;8.894;2023-06-26T01:14:40;5.90;;;5.40;;
3959;SDS011;1994;48.640;8.894;2023-06-26T01:17:06;6.77;;;5.33;;
3959;SDS011;1994;48.640;8.894;2023-06-26T01:19:38;6.67;;;5.27;;
3959;SDS011;1994;48.640;8.894;2023-06-26T01:22:14;5.90;;;4.97;;
3959;SDS011;1994;48.640;8.894;2023-06-26T01:27:34;7.13;;;6.13;;
3959;SDS011;1994;48.640;8.894;2023-06-26T01:30:01;5.90;;;5.30;;
3959;SDS011;1994;48.640;8.894;2023-06-26T01:32:30;8.20;;;5.60;;
3959;SDS011;1994;48.640;8.894;2023-06-26T01:34:58;6.00;;;5.40;;
3959;SDS011;1994;48.640;8.894;2023-06-26T01:37:24;5.57;;;4.83;;
3959;SDS011;1994;48.640;8.894;2023-06-26T01:39:50;5.50;;;5.00;;
3959;SDS011;1994;48.640;8.894;2023-06-26T01:42:16;6.47;;;5.50;;
3959;SDS011;1994;48.640;8.894;2023-06-26T01:44:44;6.00;;;5.40;;
3959;SDS011;1994;48.640;8.894;2023-06-26T01:47:12;5.90;;;5.00;;
3959;SDS011;1994;48.640;8.894;2023-06-26T01:49:56;9.50;;;5.90;;
3959;SDS011;1994;48.640;8.894;2023-06-26T01:52:41;5.97;;;4.80;;
3959;SDS011;1994;48.640;8.894;2023-06-26T01:57:42;5.80;;;5.17;;
3959;SDS011;1994;48.640;8.894;2023-06-26T02:00:13;5.53;;;5.03;;
3959;SDS011;1994;48.640;8.894;2023-06-26T02:02:42;6.60;;;5.07;;
3959;SDS011;1994;48.640;8.894;2023-06-26T02:05:09;6.30;;;5.40;;
3959;SDS011;1994;48.640;8.894;2023-06-26T02:07:35;5.80;;;5.30;;
3959;SDS011;1994;48.640;8.894;2023-06-26T02:10:01;5.23;;;4.83;;
3959;SDS011;1994;48.640;8.894;2023-06-26T02:12:28;6.13;;;5.50;;
3959;SDS011;1994;48.640;8.894;2023-06-26T02:14:53;6.43;;;5.20;;
3959;SDS011;1994;48.640;8.894;2023-06-26T02:17:19;7.00;;;5.43;;
3959;SDS011;1994;48.640;8.894;2023-06-26T02:19:45;6.67;;;5.90;;
3959;SDS011;1994;48.640;8.894;2023-06-26T02:22:14;10.70;;;5.20;;
3959;SDS011;1994;48.640;8.894;2023-06-26T02:24:41;5.63;;;4.80;;
3959;SDS011;1994;48.640;8.894;2023-06-26T02:27:08;7.10;;;5.97;;
3959;SDS011;1994;48.640;8.894;2023-06-26T02:29:35;7.30;;;6.07;;
3959;SDS011;1994;48.640;8.894;2023-06-26T02:32:01;6.87;;;4.90;;
3959;SDS011;1994;48.640;8.894;2023-06-26T02:34:27;6.10;;;5.27;;
3959;SDS011;1994;48.640;8.894;2023-06-26T02:36:53;5.73;;;5.20;;
3959;SDS011;1994;48.640;8.894;2023-06-26T02:39:20;5.50;;;4.80;;
3959;SDS011;1994;48.640;8.894;2023-06-26T02:41:46;5.63;;;5.03;;
3959;SDS011;1994;48.640;8.894;2023-06-26T02:44:12;6.70;;;4.90;;
3959;SDS011;1994;48.640;8.894;2023-06-26T02:46:39;5.73;;;5.20;;
3959;SDS011;1994;48.640;8.894;2023-06-26T02:49:05;5.50;;;5.00;;
3959;SDS011;1994;48.640;8.894;2023-06-26T02:51:32;5.60;;;5.10;;
3959;SDS011;1994;48.640;8.894;2023-06-26T02:53:58;5.70;;;4.60;;
3959;SDS011;1994;48.640;8.894;2023-06-26T02:56:25;5.30;;;4.77;;
3959;SDS011;1994;48.640;8.894;2023-06-26T02:58:55;5.53;;;5.03;;
3959;SDS011;1994;48.640;8.894;2023-06-26T03:01:21;5.47;;;4.97;;
3959;SDS011;1994;48.640;8.894;2023-06-26T03:03:47;11.03;;;4.87;;
3959;SDS011;1994;48.640;8.894;2023-06-26T03:06:13;5.40;;;4.90;;
3959;SDS011;1994;48.640;8.894;2023-06-26T03:08:40;5.63;;;5.13;;
3959;SDS011;1994;48.640;8.894;2023-06-26T03:11:09;5.30;;;4.77;;
3959;SDS011;1994;48.640;8.894;2023-06-26T03:13:35;5.83;;;5.33;;
3959;SDS011;1994;48.640;8.894;2023-06-26T03:16:02;5.83;;;5.17;;
3959;SDS011;1994;48.640;8.894;2023-06-26T03:18:29;5.30;;;4.80;;
3959;SDS011;1994;48.640;8.894;2023-06-26T03:20:55;5.80;;;4.97;;
3959;SDS011;1994;48.640;8.894;2023-06-26T03:23:22;6.17;;;5.57;;
3959;SDS011;1994;48.640;8.894;2023-06-26T03:25:49;6.87;;;5.43;;
3959;SDS011;1994;48.640;8.894;2023-06-26T03:28:16;6.17;;;5.13;;
3959;SDS011;1994;48.640;8.894;2023-06-26T03:30:42;6.63;;;6.10;;
3959;SDS011;1994;48.640;8.894;2023-06-26T03:33:08;6.00;;;5.20;;
3959;SDS011;1994;48.640;8.894;2023-06-26T03:35:34;5.73;;;4.93;;
3959;SDS011;1994;48.640;8.894;2023-06-26T03:38:00;5.67;;;4.63;;
3959;SDS011;1994;48.640;8.894;2023-06-26T03:40:27;5.13;;;4.63;;
3959;SDS011;1994;48.640;8.894;2023-06-26T03:42:52;5.77;;;4.80;;
3959;SDS011;1994;48.640;8.894;2023-06-26T03:45:18;9.10;;;4.93;;
3959;SDS011;1994;48.640;8.894;2023-06-26T03:47:45;7.87;;;5.87;;
3959;SDS011;1994;48.640;8.894;2023-06-26T03:50:17;5.67;;;4.97;;
3959;SDS011;1994;48.640;8.894;2023-06-26T03:52:45;6.13;;;5.30;;
3959;SDS011;1994;48.640;8.894;2023-06-26T03:55:10;4.63;;;4.23;;
3959;SDS011;1994;48.640;8.894;2023-06-26T03:57:37;5.37;;;4.50;;
3959;SDS011;1994;48.640;8.894;2023-06-26T04:00:03;5.80;;;5.20;;
3959;SDS011;1994;48.640;8.894;2023-06-26T04:02:38;8.40;;;5.20;;
3959;SDS011;1994;48.640;8.894;2023-06-26T04:05:04;6.10;;;5.30;;
3959;SDS011;1994;48.640;8.894;2023-06-26T04:07:31;5.83;;;5.23;;
3959;SDS011;1994;48.640;8.894;2023-06-26T04:09:57;5.70;;;5.00;;
3959;SDS011;1994;48.640;8.894;2023-06-26T04:12:23;5.17;;;4.67;;
3959;SDS011;1994;48.640;8.894;2023-06-26T04:14:49;7.00;;;5.33;;
3959;SDS011;1994;48.640;8.894;2023-06-26T04:17:14;6.83;;;5.50;;
3959;SDS011;1994;48.640;8.894;2023-06-26T04:19:40;7.00;;;5.00;;
3959;SDS011;1994;48.640;8.894;2023-06-26T04:22:06;5.93;;;5.43;;
3959;SDS011;1994;48.640;8.894;2023-06-26T04:24:32;5.43;;;4.93;;
3959;SDS011;1994;48.640;8.894;2023-06-26T04:26:58;5.63;;;5.00;;
3959;SDS011;1994;48.640;8.894;2023-06-26T04:29:25;5.93;;;5.33;;
3959;SDS011;1994;48.640;8.894;2023-06-26T04:31:51;5.20;;;4.70;;
3959;SDS011;1994;48.640;8.894;2023-06-26T04:34:22;5.80;;;5.30;;
3959;SDS011;1994;48.640;8.894;2023-06-26T04:36:57;8.43;;;6.30;;
3959;SDS011;1994;48.640;8.894;2023-06-26T04:39:23;6.10;;;5.20;;
3959;SDS011;1994;48.640;8.894;2023-06-26T04:41:49;7.07;;;5.20;;
3959;SDS011;1994;48.640;8.894;2023-06-26T04:44:15;9.70;;;5.63;;
3959;SDS011;1994;48.640;8.894;2023-06-26T04:46:41;5.93;;;5.23;;
3959;SDS011;1994;48.640;8.894;2023-06-26T04:49:10;5.50;;;5.00;;
3959;SDS011;1994;48.640;8.894;2023-06-26T04:51:36;5.90;;;5.30;;
3959;SDS011;1994;48.640;8.894;2023-06-26T04:54:08;7.73;;;5.40;;
3959;SDS011;1994;48.640;8.894;2023-06-26T04:56:35;6.10;;;5.47;;
3959;SDS011;1994;48.640;8.894;2023-06-26T04:59:02;5.50;;;4.53;;
3959;SDS011;1994;48.640;8.894;2023-06-26T05:01:28;5.17;;;4.50;;
3959;SDS011;1994;48.640;8.894;2023-06-26T05:03:58;7.30;;;5.33;;
3959;SDS011;1994;48.640;8.894;2023-06-26T05:06:24;5.67;;;5.10;;
3959;SDS011;1994;48.640;8.894;2023-06-26T05:08:50;8.03;;;5.30;;
3959;SDS011;1994;48.640;8.894;2023-06-26T05:11:16;6.17;;;5.53;;
3959;SDS011;1994;48.640;8.894;2023-06-26T05:13:42;6.13;;;5.53;;
3959;SDS011;1994;48.640;8.894;2023-06-26T05:16:08;6.00;;;5.40;;
3959;SDS011;1994;48.640;8.894;2023-06-26T05:18:34;6.00;;;5.40;;
3959;SDS011;1994;48.640;8.894;2023-06-26T05:21:01;5.80;;;5.30;;
3959;SDS011;1994;48.640;8.894;2023-06-26T05:23:28;6.00;;;5.50;;
3959;SDS011;1994;48.640;8.894;2023-06-26T05:25:57;6.60;;;6.00;;
3959;SDS011;1994;48.640;8.894;2023-06-26T05:28:23;6.57;;;5.77;;
3959;SDS011;1994;48.640;8.894;2023-06-26T05:30:51;7.53;;;5.47;;
3959;SDS011;1994;48.640;8.894;2023-06-26T05:33:17;6.20;;;5.60;;
3959;SDS011;1994;48.640;8.894;2023-06-26T05:35:46;6.30;;;5.17;;
3959;SDS011;1994;48.640;8.894;2023-06-26T05:38:14;5.70;;;4.93;;
3959;SDS011;1994;48.640;8.894;2023-06-26T05:40:40;11.67;;;6.03;;
3959;SDS011;1994;48.640;8.894;2023-06-26T05:43:06;6.20;;;5.53;;
3959;SDS011;1994;48.640;8.894;2023-06-26T05:45:33;6.63;;;6.03;;
3959;SDS011;1994;48.640;8.894;2023-06-26T05:47:59;6.33;;;5.60;;
3959;SDS011;1994;48.640;8.894;2023-06-26T05:50:25;5.80;;;5.00;;
3959;SDS011;1994;48.640;8.894;2023-06-26T05:52:53;6.00;;;5.33;;
3959;SDS011;1994;48.640;8.894;2023-06-26T05:55:19;6.00;;;5.40;;
3959;SDS011;1994;48.640;8.894;2023-06-26T05:57:46;6.10;;;4.93;;
3959;SDS011;1994;48.640;8.894;2023-06-26T06:00:13;7.53;;;6.40;;
3959;SDS011;1994;48.640;8.894;2023-06-26T06:02:39;8.17;;;5.17;;
3959;SDS011;1994;48.640;8.894;2023-06-26T06:05:06;7.23;;;5.37;;
3959;SDS011;1994;48.640;8.894;2023-06-26T06:07:33;5.80;;;5.30;;
3959;SDS011;1994;48.640;8.894;2023-06-26T06:09:59;7.77;;;6.63;;
3959;SDS011;1994;48.640;8.894;2023-06-26T06:12:27;5.10;;;4.63;;
3959;SDS011;1994;48.640;8.894;2023-06-26T06:14:52;7.07;;;6.07;;
3959;SDS011;1994;48.640;8.894;2023-06-26T06:17:19;7.40;;;5.90;;
3959;SDS011;1994;48.640;8.894;2023-06-26T06:19:45;8.23;;;5.70;;
3959;SDS011;1994;48.640;8.894;2023-06-26T06:22:11;5.67;;;5.27;;
3959;SDS011;1994;48.640;8.894;2023-06-26T06:24:37;7.20;;;5.03;;
3959;SDS011;1994;48.640;8.894;2023-06-26T06:27:03;9.90;;;5.87;;
3959;SDS011;1994;48.640;8.894;2023-06-26T06:29:29;5.83;;;5.23;;
3959;SDS011;1994;48.640;8.894;2023-06-26T06:31:54;5.50;;;4.50;;
3959;SDS011;1994;48.640;8.894;2023-06-26T06:34:21;6.13;;;5.53;;
3959;SDS011;1994;48.640;8.894;2023-06-26T06:36:48;5.70;;;4.87;;
3959;SDS011;1994;48.640;8.894;2023-06-26T06:39:15;7.00;;;5.40;;
3959;SDS011;1994;48.640;8.894;2023-06-26T06:41:41;6.37;;;5.80;;
3959;SDS011;1994;48.640;8.894;2023-06-26T06:44:07;7.00;;;5.30;;
3959;SDS011;1994;48.640;8.894;2023-06-26T06:46:33;6.27;;;5.50;;
3959;SDS011;1994;48.640;8.894;2023-06-26T06:48:58;6.20;;;5.60;;
3959;SDS011;1994;48.640;8.894;2023-06-26T06:51:25;6.03;;;5.53;;
3959;SDS011;1994;48.640;8.894;2023-06-26T06:53:51;6.17;;;5.57;;
3959;SDS011;1994;48.640;8.894;2023-06-26T06:56:17;5.90;;;5.30;;
3959;SDS011;1994;48.640;8.894;2023-06-26T06:58:42;5.93;;;5.50;;
3959;SDS011;1994;48.640;8.894;2023-06-26T07:01:11;5.97;;;4.97;;
3959;SDS011;1994;48.640;8.894;2023-06-26T07:03:38;5.33;;;4.83;;
3959;SDS011;1994;48.640;8.894;2023-06-26T07:06:04;7.03;;;5.40;;
3959;SDS011;1994;48.640;8.894;2023-06-26T07:08:31;7.67;;;5.43;;
3959;SDS011;1994;48.640;8.894;2023-06-26T07:10:56;6.33;;;5.63;;
3959;SDS011;1994;48.640;8.894;2023-06-26T07:13:22;6.83;;;5.00;;
3959;SDS011;1994;48.640;8.894;2023-06-26T07:15:48;6.13;;;5.60;;
3959;SDS011;1994;48.640;8.894;2023-06-26T07:18:14;5.73;;;5.33;;
3959;SDS011;1994;48.640;8.894;2023-06-26T07:20:40;5.33;;;4.87;;
3959;SDS011;1994;48.640;8.894;2023-06-26T07:23:07;6.47;;;5.83;;
3959;SDS011;1994;48.640;8.894;2023-06-26T07:25:33;4.83;;;4.40;;
3959;SDS011;1994;48.640;8.894;2023-06-26T07:27:59;5.13;;;4.10;;
3959;SDS011;1994;48.640;8.894;2023-06-26T07:30:25;6.20;;;4.57;;
3959;SDS011;1994;48.640;8.894;2023-06-26T07:32:51;10.30;;;5.00;;
3959;SDS011;1994;48.640;8.894;2023-06-26T07:35:17;7.17;;;5.10;;
3959;SDS011;1994;48.640;8.894;2023-06-26T07:37:42;9.90;;;4.17;;
3959;SDS011;1994;48.640;8.894;2023-06-26T07:40:09;6.47;;;4.40;;
3959;SDS011;1994;48.640;8.894;2023-06-26T07:42:35;4.83;;;4.47;;
3959;SDS011;1994;48.640;8.894;2023-06-26T07:45:01;5.50;;;5.10;;
3959;SDS011;1994;48.640;8.894;2023-06-26T07:47:34;4.60;;;4.20;;
3959;SDS011;1994;48.640;8.894;2023-06-26T07:50:01;4.80;;;4.50;;
3959;SDS011;1994;48.640;8.894;2023-06-26T07:52:28;11.70;;;5.83;;
3959;SDS011;1994;48.640;8.894;2023-06-26T07:54:55;4.80;;;4.30;;
3959;SDS011;1994;48.640;8.894;2023-06-26T07:57:21;4.70;;;4.30;;
3959;SDS011;1994;48.640;8.894;2023-06-26T07:59:47;5.43;;;4.10;;
3959;SDS011;1994;48.640;8.894;2023-06-26T08:02:13;4.40;;;4.10;;
3959;SDS011;1994;48.640;8.894;2023-06-26T08:04:39;3.90;;;3.60;;
3959;SDS011;1994;48.640;8.894;2023-06-26T08:07:04;4.20;;;3.90;;
3959;SDS011;1994;48.640;8.894;2023-06-26T08:09:31;3.47;;;3.27;;
3959;SDS011;1994;48.640;8.894;2023-06-26T08:11:57;3.60;;;3.30;;
3959;SDS011;1994;48.640;8.894;2023-06-26T08:14:23;4.77;;;3.90;;
3959;SDS011;1994;48.640;8.894;2023-06-26T08:16:49;4.40;;;4.00;;
3959;SDS011;1994;48.640;8.894;2023-06-26T08:19:15;4.10;;;3.80;;
3959;SDS011;1994;48.640;8.894;2023-06-26T08:21:42;4.23;;;3.93;;
3959;SDS011;1994;48.640;8.894;2023-06-26T08:24:12;5.77;;;3.30;;
3959;SDS011;1994;48.640;8.894;2023-06-26T08:26:41;4.00;;;3.80;;
3959;SDS011;1994;48.640;8.894;2023-06-26T08:29:06;3.77;;;3.57;;
3959;SDS011;1994;48.640;8.894;2023-06-26T08:31:33;4.77;;;4.37;;
3959;SDS011;1994;48.640;8.894;2023-06-26T08:34:01;3.87;;;3.63;;
3959;SDS011;1994;48.640;8.894;2023-06-26T08:36:28;4.90;;;3.57;;
3959;SDS011;1994;48.640;8.894;2023-06-26T08:38:54;4.70;;;4.30;;
3959;SDS011;1994;48.640;8.894;2023-06-26T08:41:19;4.40;;;4.10;;
3959;SDS011;1994;48.640;8.894;2023-06-26T08:43:46;8.17;;;3.77;;
3959;SDS011;1994;48.640;8.894;2023-06-26T08:46:14;4.80;;;4.23;;
3959;SDS011;1994;48.640;8.894;2023-06-26T08:48:40;4.00;;;3.70;;
3959;SDS011;1994;48.640;8.894;2023-06-26T08:51:13;4.60;;;4.30;;
3959;SDS011;1994;48.640;8.894;2023-06-26T08:56:29;4.67;;;4.37;;
3959;SDS011;1994;48.640;8.894;2023-06-26T08:59:03;4.60;;;4.30;;
3959;SDS011;1994;48.640;8.894;2023-06-26T09:01:31;5.13;;;4.73;;
3959;SDS011;1994;48.640;8.894;2023-06-26T09:03:57;4.20;;;3.90;;
3959;SDS011;1994;48.640;8.894;2023-06-26T09:06:23;4.30;;;4.00;;
3959;SDS011;1994;48.640;8.894;2023-06-26T09:08:48;3.83;;;3.60;;
3959;SDS011;1994;48.640;8.894;2023-06-26T09:11:14;4.20;;;3.90;;
3959;SDS011;1994;48.640;8.894;2023-06-26T09:13:40;5.50;;;4.37;;
3959;SDS011;1994;48.640;8.894;2023-06-26T09:16:06;4.10;;;3.70;;
3959;SDS011;1994;48.640;8.894;2023-06-26T09:18:35;3.97;;;3.67;;
3959;SDS011;1994;48.640;8.894;2023-06-26T09:21:10;4.73;;;4.33;;
3959;SDS011;1994;48.640;8.894;2023-06-26T09:23:36;5.70;;;4.00;;
3959;SDS011;1994;48.640;8.894;2023-06-26T09:26:06;3.83;;;3.40;;
3959;SDS011;1994;48.640;8.894;2023-06-26T09:28:32;4.13;;;3.73;;
3959;SDS011;1994;48.640;8.894;2023-06-26T09:31:02;4.33;;;4.03;;
3959;SDS011;1994;48.640;8.894;2023-06-26T09:33:34;4.60;;;4.30;;
3959;SDS011;1994;48.640;8.894;2023-06-26T09:36:04;4.57;;;4.03;;
3959;SDS011;1994;48.640;8.894;2023-06-26T09:38:43;7.23;;;3.97;;
3959;SDS011;1994;48.640;8.894;2023-06-26T09:41:09;4.43;;;4.13;;
3959;SDS011;1994;48.640;8.894;2023-06-26T09:43:35;4.40;;;4.10;;
3959;SDS011;1994;48.640;8.894;2023-06-26T09:46:15;4.50;;;4.20;;
3959;SDS011;1994;48.640;8.894;2023-06-26T09:49:24;4.33;;;3.80;;
3959;SDS011;1994;48.640;8.894;2023-06-26T09:51:43;4.93;;;4.43;;
3959;SDS011;1994;48.640;8.894;2023-06-26T09:54:10;4.30;;;4.00;;
3959;SDS011;1994;48.640;8.894;2023-06-26T09:56:35;4.10;;;3.83;;
3959;SDS011;1994;48.640;8.894;2023-06-26T09:59:03;3.77;;;3.57;;
3959;SDS011;1994;48.640;8.894;2023-06-26T10:01:31;4.60;;;4.30;;
3959;SDS011;1994;48.640;8.894;2023-06-26T10:03:58;4.20;;;3.90;;
3959;SDS011;1994;48.640;8.894;2023-06-26T10:07:08;4.57;;;4.07;;
3959;SDS011;1994;48.640;8.894;2023-06-26T10:09:16;4.33;;;4.03;;
3959;SDS011;1994;48.640;8.894;2023-06-26T10:11:48;4.00;;;3.70;;
3959;SDS011;1994;48.640;8.894;2023-06-26T10:14:47;4.57;;;4.27;;
3959;SDS011;1994;48.640;8.894;2023-06-26T10:17:19;4.57;;;4.27;;
3959;SDS011;1994;48.640;8.894;2023-06-26T10:19:46;4.53;;;4.13;;
3959;SDS011;1994;48.640;8.894;2023-06-26T10:22:14;4.57;;;3.97;;
3959;SDS011;1994;48.640;8.894;2023-06-26T10:24:42;6.07;;;4.43;;
3959;SDS011;1994;48.640;8.894;2023-06-26T10:27:20;4.13;;;3.80;;
3959;SDS011;1994;48.640;8.894;2023-06-26T10:29:54;6.97;;;4.40;;
3959;SDS011;1994;48.640;8.894;2023-06-26T10:32:25;5.40;;;4.90;;
3959;SDS011;1994;48.640;8.894;2023-06-26T10:34:53;4.60;;;4.23;;
3959;SDS011;1994;48.640;8.894;2023-06-26T10:37:20;6.03;;;4.70;;
3959;SDS011;1994;48.640;8.894;2023-06-26T10:40:05;5.60;;;5.20;;
3959;SDS011;1994;48.640;8.894;2023-06-26T10:42:35;5.43;;;4.93;;
3959;SDS011;1994;48.640;8.894;2023-06-26T10:45:09;5.20;;;4.80;;
3959;SDS011;1994;48.640;8.894;2023-06-26T10:47:39;4.90;;;4.40;;
3959;SDS011;1994;48.640;8.894;2023-06-26T10:58:30;5.40;;;5.00;;
3959;SDS011;1994;48.640;8.894;2023-06-26T11:01:35;5.67;;;5.17;;
3959;SDS011;1994;48.640;8.894;2023-06-26T11:06:23;5.67;;;5.27;;
3959;SDS011;1994;48.640;8.894;2023-06-26T11:11:19;5.17;;;4.77;;
3959;SDS011;1994;48.640;8.894;2023-06-26T11:13:47;7.50;;;4.53;;
3959;SDS011;1994;48.640;8.894;2023-06-26T11:16:13;4.90;;;4.50;;
3959;SDS011;1994;48.640;8.894;2023-06-26T11:18:40;5.60;;;4.30;;
3959;SDS011;1994;48.640;8.894;2023-06-26T11:21:07;4.70;;;4.40;;
3959;SDS011;1994;48.640;8.894;2023-06-26T11:23:35;5.60;;;5.20;;
3959;SDS011;1994;48.640;8.894;2023-06-26T11:26:20;5.30;;;4.90;;
3959;SDS011;1994;48.640;8.894;2023-06-26T11:29:04;4.93;;;4.53;;
3959;SDS011;1994;48.640;8.894;2023-06-26T11:31:31;5.10;;;4.63;;
3959;SDS011;1994;48.640;8.894;2023-06-26T11:34:03;5.13;;;4.73;;
3959;SDS011;1994;48.640;8.894;2023-06-26T11:36:40;5.83;;;5.23;;
3959;SDS011;1994;48.640;8.894;2023-06-26T11:39:10;5.03;;;4.57;;
3959;SDS011;1994;48.640;8.894;2023-06-26T11:41:37;5.37;;;4.97;;
3959;SDS011;1994;48.640;8.894;2023-06-26T11:44:06;4.53;;;4.23;;
3959;SDS011;1994;48.640;8.894;2023-06-26T11:46:39;5.20;;;4.80;;
3959;SDS011;1994;48.640;8.894;2023-06-26T11:49:05;4.90;;;4.50;;
3959;SDS011;1994;48.640;8.894;2023-06-26T11:51:32;5.43;;;5.03;;
3959;SDS011;1994;48.640;8.894;2023-06-26T11:54:02;5.30;;;4.90;;
3959;SDS011;1994;48.640;8.894;2023-06-26T11:56:29;7.50;;;4.53;;
3959;SDS011;1994;48.640;8.894;2023-06-26T12:01:30;4.63;;;4.33;;
3959;SDS011;1994;48.640;8.894;2023-06-26T12:04:10;4.43;;;4.13;;
3959;SDS011;1994;48.640;8.894;2023-06-26T12:06:40;4.30;;;4.00;;
3959;SDS011;1994;48.640;8.894;2023-06-26T12:09:10;5.10;;;4.70;;
3959;SDS011;1994;48.640;8.894;2023-06-26T12:11:41;4.67;;;4.37;;
3959;SDS011;1994;48.640;8.894;2023-06-26T12:14:09;5.43;;;5.03;;
3959;SDS011;1994;48.640;8.894;2023-06-26T12:16:36;5.17;;;4.37;;
3959;SDS011;1994;48.640;8.894;2023-06-26T12:19:06;13.83;;;4.87;;
3959;SDS011;1994;48.640;8.894;2023-06-26T12:24:01;4.60;;;4.30;;
3959;SDS011;1994;48.640;8.894;2023-06-26T12:26:28;4.87;;;4.40;;
3959;SDS011;1994;48.640;8.894;2023-06-26T12:29:01;4.93;;;4.60;;
3959;SDS011;1994;48.640;8.894;2023-06-26T12:31:34;5.50;;;5.00;;
3959;SDS011;1994;48.640;8.894;2023-06-26T12:34:01;4.77;;;4.47;;
3959;SDS011;1994;48.640;8.894;2023-06-26T12:36:27;5.10;;;4.70;;
3959;SDS011;1994;48.640;8.894;2023-06-26T12:38:53;4.90;;;4.50;;
3959;SDS011;1994;48.640;8.894;2023-06-26T12:41:20;4.13;;;3.83;;
3959;SDS011;1994;48.640;8.894;2023-06-26T12:43:49;5.73;;;5.23;;
3959;SDS011;1994;48.640;8.894;2023-06-26T12:46:20;4.43;;;4.10;;
3959;SDS011;1994;48.640;8.894;2023-06-26T12:48:57;4.83;;;4.43;;
3959;SDS011;1994;48.640;8.894;2023-06-26T12:51:23;7.77;;;3.97;;
3959;SDS011;1994;48.640;8.894;2023-06-26T12:53:51;4.60;;;4.20;;
3959;SDS011;1994;48.640;8.894;2023-06-26T12:56:17;4.50;;;4.10;;
3959;SDS011;1994;48.640;8.894;2023-06-26T12:58:44;5.37;;;4.87;;
3959;SDS011;1994;48.640;8.894;2023-06-26T13:01:10;4.83;;;4.43;;
3959;SDS011;1994;48.640;8.894;2023-06-26T13:03:38;4.47;;;4.17;;
3959;SDS011;1994;48.640;8.894;2023-06-26T13:06:05;6.07;;;4.20;;
3959;SDS011;1994;48.640;8.894;2023-06-26T13:08:31;5.10;;;4.57;;
3959;SDS011;1994;48.640;8.894;2023-06-26T13:10:58;5.17;;;4.67;;
3959;SDS011;1994;48.640;8.894;2023-06-26T13:13:24;4.60;;;4.20;;
3959;SDS011;1994;48.640;8.894;2023-06-26T13:15:50;3.77;;;3.47;;
3959;SDS011;1994;48.640;8.894;2023-06-26T13:18:16;5.40;;;4.97;;
3959;SDS011;1994;48.640;8.894;2023-06-26T13:20:42;4.87;;;4.53;;
3959;SDS011;1994;48.640;8.894;2023-06-26T13:23:08;4.23;;;3.43;;
3959;SDS011;1994;48.640;8.894;2023-06-26T13:25:33;4.43;;;4.03;;
3959;SDS011;1994;48.640;8.894;2023-06-26T13:27:59;10.27;;;4.60;;
3959;SDS011;1994;48.640;8.894;2023-06-26T13:30:25;3.47;;;3.20;;
3959;SDS011;1994;48.640;8.894;2023-06-26T13:32:51;6.10;;;3.80;;
3959;SDS011;1994;48.640;8.894;2023-06-26T13:35:16;4.47;;;4.07;;
3959;SDS011;1994;48.640;8.894;2023-06-26T13:37:43;6.60;;;3.90;;
3959;SDS011;1994;48.640;8.894;2023-06-26T13:40:09;4.10;;;3.80;;
3959;SDS011;1994;48.640;8.894;2023-06-26T13:42:35;4.53;;;4.20;;
3959;SDS011;1994;48.640;8.894;2023-06-26T13:45:02;4.63;;;4.33;;
3959;SDS011;1994;48.640;8.894;2023-06-26T13:47:28;3.87;;;3.67;;
3959;SDS011;1994;48.640;8.894;2023-06-26T13:49:54;3.97;;;3.67;;
3959;SDS011;1994;48.640;8.894;2023-06-26T13:52:20;4.57;;;4.17;;
3959;SDS011;1994;48.640;8.894;2023-06-26T13:54:46;4.33;;;4.03;;
3959;SDS011;1994;48.640;8.894;2023-06-26T13:57:12;4.20;;;3.90;;
3959;SDS011;1994;48.640;8.894;2023-06-26T13:59:38;3.60;;;3.40;;
3959;SDS011;1994;48.640;8.894;2023-06-26T14:02:04;4.20;;;3.80;;
3959;SDS011;1994;48.640;8.894;2023-06-26T14:04:32;4.87;;;4.47;;
3959;SDS011;1994;48.640;8.894;2023-06-26T14:06:58;3.60;;;3.40;;
3959;SDS011;1994;48.640;8.894;2023-06-26T14:09:23;7.10;;;3.73;;
3959;SDS011;1994;48.640;8.894;2023-06-26T14:11:49;4.67;;;4.27;;
3959;SDS011;1994;48.640;8.894;2023-06-26T14:14:15;4.17;;;3.87;;
3959;SDS011;1994;48.640;8.894;2023-06-26T14:16:41;3.77;;;3.23;;
3959;SDS011;1994;48.640;8.894;2023-06-26T14:19:07;3.20;;;3.00;;
3959;SDS011;1994;48.640;8.894;2023-06-26T14:21:38;8.17;;;4.07;;
3959;SDS011;1994;48.640;8.894;2023-06-26T14:24:03;3.87;;;3.60;;
3959;SDS011;1994;48.640;8.894;2023-06-26T14:26:29;3.80;;;3.50;;
3959;SDS011;1994;48.640;8.894;2023-06-26T14:28:57;6.20;;;3.20;;
3959;SDS011;1994;48.640;8.894;2023-06-26T14:31:22;8.63;;;3.50;;
3959;SDS011;1994;48.640;8.894;2023-06-26T14:33:48;3.33;;;3.10;;
3959;SDS011;1994;48.640;8.894;2023-06-26T14:36:14;3.37;;;3.07;;
3959;SDS011;1994;48.640;8.894;2023-06-26T14:38:40;2.90;;;2.70;;
3959;SDS011;1994;48.640;8.894;2023-06-26T14:41:06;3.50;;;3.20;;
3959;SDS011;1994;48.640;8.894;2023-06-26T14:43:32;3.00;;;2.80;;
3959;SDS011;1994;48.640;8.894;2023-06-26T14:45:57;3.20;;;2.90;;
3959;SDS011;1994;48.640;8.894;2023-06-26T14:48:23;3.00;;;2.80;;
3959;SDS011;1994;48.640;8.894;2023-06-26T14:50:49;3.07;;;2.77;;
3959;SDS011;1994;48.640;8.894;2023-06-26T14:53:15;2.87;;;2.60;;
3959;SDS011;1994;48.640;8.894;2023-06-26T14:55:42;3.27;;;3.00;;
3959;SDS011;1994;48.640;8.894;2023-06-26T14:58:08;2.73;;;2.53;;
3959;SDS011;1994;48.640;8.894;2023-06-26T15:00:33;3.13;;;2.93;;
3959;SDS011;1994;48.640;8.894;2023-06-26T15:02:59;2.40;;;2.20;;
3959;SDS011;1994;48.640;8.894;2023-06-26T15:05:25;3.47;;;3.17;;
3959;SDS011;1994;48.640;8.894;2023-06-26T15:07:51;3.57;;;3.27;;
3959;SDS011;1994;48.640;8.894;2023-06-26T15:10:17;3.27;;;3.07;;
3959;SDS011;1994;48.640;8.894;2023-06-26T15:12:43;3.47;;;3.10;;
3959;SDS011;1994;48.640;8.894;2023-06-26T15:15:09;4.20;;;2.90;;
3959;SDS011;1994;48.640;8.894;2023-06-26T15:17:35;3.03;;;2.63;;
3959;SDS011;1994;48.640;8.894;2023-06-26T15:20:01;3.30;;;3.00;;
3959;SDS011;1994;48.640;8.894;2023-06-26T15:22:26;3.17;;;2.97;;
3959;SDS011;1994;48.640;8.894;2023-06-26T15:24:52;3.17;;;2.97;;
3959;SDS011;1994;48.640;8.894;2023-06-26T15:27:18;3.00;;;2.80;;
3959;SDS011;1994;48.640;8.894;2023-06-26T15:29:45;3.17;;;2.90;;
3959;SDS011;1994;48.640;8.894;2023-06-26T15:32:10;4.13;;;3.73;;
3959;SDS011;1994;48.640;8.894;2023-06-26T15:34:36;4.40;;;2.83;;
3959;SDS011;1994;48.640;8.894;2023-06-26T15:37:02;3.97;;;3.67;;
3959;SDS011;1994;48.640;8.894;2023-06-26T15:39:28;8.77;;;4.70;;
3959;SDS011;1994;48.640;8.894;2023-06-26T15:41:54;4.60;;;3.40;;
3959;SDS011;1994;48.640;8.894;2023-06-26T15:44:20;3.43;;;3.13;;